CES7630 ZUXC-PHNL
Flight info
| Callsign | CES7630 |
|---|---|
| Flight time | N/A |
| Altitude | 35100 |
| Route | BOPTU W162 KAKMI W144 IGNAK W179 WFX B213 ESPEG V154 SNF W269 OLPOV B213 WHA R343 PK A593 AKARA/K0913F351 A593 LAMEN/N0493F351 A593 SADLI Y590 BEDAR Y591 FUE Y23 KASTE Y81 TASOT Y57 LIGNI Y816 IPROS Y830 LAPIL OTR13 SEALS DCT 34N153E DCT 34N159E DCT 33N166E DCT 31N173E DCT 29N179E DCT 27N174W DCT 25N168W DCT CANON DCT CANON |
| Aircraft | MD11/H-SDE1E2E3FGHIJ2J3J4J5M1RWXY/LB1D1 |
Departure
| Time | 2026-04-15 14:19 |
|---|---|
| Airport | Xichang Qingshan Airport (ZUXC) |
Arrival
| Time | N/A |
|---|---|
| Airport | Daniel K. Inouye International Airport (PHNL) |
| Time | Latitude | Longitude | Altitude | Speed | Heading |
|---|---|---|---|---|---|
| 2026-04-15 14:05 | 27.98292 | 102.18647 | 5072 ft | 0 kts | 88° |
| 2026-04-15 14:06 | 27.98292 | 102.18639 | 5073 ft | 4 kts | 85° |
| 2026-04-15 14:06 | 27.98288 | 102.18611 | 5073 ft | 4 kts | 64° |
| 2026-04-15 14:06 | 27.98274 | 102.18586 | 5073 ft | 4 kts | 51° |
| 2026-04-15 14:06 | 27.98263 | 102.18570 | 5074 ft | 1 kts | 55° |
| 2026-04-15 14:07 | 27.98262 | 102.18568 | 5074 ft | 0 kts | 55° |
| 2026-04-15 14:09 | 27.98263 | 102.18570 | 5074 ft | 1 kts | 55° |
| 2026-04-15 14:09 | 27.98269 | 102.18576 | 5071 ft | 2 kts | 44° |
| 2026-04-15 14:09 | 27.98287 | 102.18584 | 5071 ft | 3 kts | 14° |
| 2026-04-15 14:10 | 27.98315 | 102.18587 | 5071 ft | 5 kts | 2° |
| 2026-04-15 14:10 | 27.98357 | 102.18587 | 5071 ft | 7 kts | 360° |
| 2026-04-15 14:10 | 27.98412 | 102.18586 | 5071 ft | 8 kts | 358° |
| 2026-04-15 14:10 | 27.98476 | 102.18584 | 5071 ft | 10 kts | 358° |
| 2026-04-15 14:11 | 27.98553 | 102.18581 | 5071 ft | 12 kts | 358° |
| 2026-04-15 14:11 | 27.98638 | 102.18577 | 5071 ft | 13 kts | 358° |
| 2026-04-15 14:11 | 27.98734 | 102.18574 | 5071 ft | 14 kts | 358° |
| 2026-04-15 14:11 | 27.98838 | 102.18570 | 5071 ft | 16 kts | 358° |
| 2026-04-15 14:12 | 27.98950 | 102.18565 | 5075 ft | 17 kts | 358° |
| 2026-04-15 14:12 | 27.99068 | 102.18560 | 5075 ft | 17 kts | 358° |
| 2026-04-15 14:12 | 27.99191 | 102.18555 | 5076 ft | 18 kts | 358° |
| 2026-04-15 14:12 | 27.99319 | 102.18551 | 5076 ft | 19 kts | 358° |
| 2026-04-15 14:13 | 27.99452 | 102.18546 | 5072 ft | 19 kts | 358° |
| 2026-04-15 14:13 | 27.99574 | 102.18542 | 5072 ft | 17 kts | 358° |
| 2026-04-15 14:13 | 27.99685 | 102.18538 | 5072 ft | 15 kts | 358° |
| 2026-04-15 14:13 | 27.99788 | 102.18535 | 5071 ft | 14 kts | 358° |
| 2026-04-15 14:14 | 27.99883 | 102.18530 | 5073 ft | 13 kts | 357° |
| 2026-04-15 14:14 | 27.99968 | 102.18525 | 5073 ft | 11 kts | 356° |
| 2026-04-15 14:14 | 28.00042 | 102.18520 | 5074 ft | 10 kts | 356° |
| 2026-04-15 14:14 | 28.00109 | 102.18516 | 5073 ft | 9 kts | 356° |
| 2026-04-15 14:15 | 28.00169 | 102.18512 | 5086 ft | 8 kts | 356° |
| 2026-04-15 14:15 | 28.00222 | 102.18515 | 5086 ft | 7 kts | 2° |
| 2026-04-15 14:15 | 28.00269 | 102.18515 | 5086 ft | 6 kts | 359° |
| 2026-04-15 14:15 | 28.00307 | 102.18514 | 5086 ft | 5 kts | 358° |
| 2026-04-15 14:16 | 28.00338 | 102.18512 | 5087 ft | 4 kts | 358° |
| 2026-04-15 14:16 | 28.00367 | 102.18511 | 5087 ft | 4 kts | 358° |
| 2026-04-15 14:16 | 28.00398 | 102.18510 | 5088 ft | 4 kts | 358° |
| 2026-04-15 14:16 | 28.00429 | 102.18508 | 5088 ft | 5 kts | 358° |
| 2026-04-15 14:17 | 28.00476 | 102.18502 | 5090 ft | 8 kts | 339° |
| 2026-04-15 14:17 | 28.00497 | 102.18441 | 5091 ft | 10 kts | 270° |
| 2026-04-15 14:17 | 28.00468 | 102.18379 | 5091 ft | 9 kts | 225° |
| 2026-04-15 14:17 | 28.00387 | 102.18374 | 5091 ft | 31 kts | 179° |
| 2026-04-15 14:18 | 27.99905 | 102.18392 | 5075 ft | 106 kts | 178° |
| 2026-04-15 14:18 | 27.98946 | 102.18429 | 5074 ft | 167 kts | 178° |
| 2026-04-15 14:18 | 27.97649 | 102.18477 | 5125 ft | 199 kts | 178° |
| 2026-04-15 14:18 | 27.96248 | 102.18550 | 5643 ft | 199 kts | 178° |
| 2026-04-15 14:19 | 27.94862 | 102.18636 | 6295 ft | 200 kts | 178° |
| 2026-04-15 14:19 | 27.93471 | 102.18726 | 6941 ft | 201 kts | 178° |
| 2026-04-15 14:19 | 27.92059 | 102.18815 | 7430 ft | 204 kts | 178° |
| 2026-04-15 14:19 | 27.90676 | 102.18884 | 7927 ft | 198 kts | 183° |
| 2026-04-15 14:20 | 27.89320 | 102.18668 | 8338 ft | 204 kts | 197° |
| 2026-04-15 14:20 | 27.87925 | 102.18143 | 8484 ft | 218 kts | 201° |
| 2026-04-15 14:20 | 27.86453 | 102.17598 | 8643 ft | 226 kts | 191° |
| 2026-04-15 14:20 | 27.84892 | 102.17757 | 8911 ft | 229 kts | 163° |
| 2026-04-15 14:21 | 27.83429 | 102.18505 | 9146 ft | 232 kts | 156° |
| 2026-04-15 14:21 | 27.81991 | 102.19345 | 9499 ft | 234 kts | 154° |
| 2026-04-15 14:21 | 27.80549 | 102.20207 | 9983 ft | 235 kts | 152° |
| 2026-04-15 14:21 | 27.79229 | 102.21357 | 10236 ft | 250 kts | 135° |
| 2026-04-15 14:22 | 27.78340 | 102.23071 | 10350 ft | 267 kts | 109° |
| 2026-04-15 14:22 | 27.78233 | 102.25213 | 10479 ft | 286 kts | 80° |
| 2026-04-15 14:22 | 27.78912 | 102.27407 | 10608 ft | 308 kts | 66° |
| 2026-04-15 14:22 | 27.79906 | 102.29657 | 10766 ft | 333 kts | 64° |
| 2026-04-15 14:23 | 27.81027 | 102.32047 | 10888 ft | 357 kts | 63° |
| 2026-04-15 14:23 | 27.82226 | 102.34607 | 11033 ft | 380 kts | 63° |
| 2026-04-15 14:23 | 27.83464 | 102.37287 | 11569 ft | 389 kts | 63° |
| 2026-04-15 14:23 | 27.84693 | 102.39981 | 12266 ft | 393 kts | 63° |
| 2026-04-15 14:24 | 27.85949 | 102.42760 | 12897 ft | 402 kts | 63° |
| 2026-04-15 14:24 | 27.87219 | 102.45588 | 13639 ft | 406 kts | 63° |
| 2026-04-15 14:24 | 27.88501 | 102.48455 | 14283 ft | 411 kts | 63° |
| 2026-04-15 14:24 | 27.89798 | 102.51352 | 14921 ft | 415 kts | 63° |
| 2026-04-15 14:25 | 27.91112 | 102.54275 | 15585 ft | 419 kts | 63° |
| 2026-04-15 14:25 | 27.92437 | 102.57218 | 16225 ft | 422 kts | 63° |
| 2026-04-15 14:25 | 27.93777 | 102.60192 | 16864 ft | 426 kts | 63° |
| 2026-04-15 14:25 | 27.95113 | 102.63155 | 17514 ft | 430 kts | 63° |
| 2026-04-15 14:26 | 27.96477 | 102.66182 | 18154 ft | 434 kts | 62° |
| 2026-04-15 14:26 | 27.97851 | 102.69236 | 18716 ft | 438 kts | 62° |
| 2026-04-15 14:26 | 27.99241 | 102.72326 | 19181 ft | 442 kts | 62° |
| 2026-04-15 14:26 | 28.00642 | 102.75441 | 19705 ft | 446 kts | 62° |
| 2026-04-15 14:27 | 28.02052 | 102.78581 | 20212 ft | 450 kts | 63° |
| 2026-04-15 14:27 | 28.03476 | 102.81756 | 20718 ft | 454 kts | 62° |
| 2026-04-15 14:27 | 28.04911 | 102.84959 | 21208 ft | 459 kts | 62° |
| 2026-04-15 14:27 | 28.06354 | 102.88181 | 21879 ft | 457 kts | 62° |
| 2026-04-15 14:28 | 28.07794 | 102.91400 | 22490 ft | 459 kts | 62° |
| 2026-04-15 14:28 | 28.09220 | 102.94589 | 23041 ft | 462 kts | 62° |
| 2026-04-15 14:28 | 28.10674 | 102.97843 | 23534 ft | 465 kts | 62° |
| 2026-04-15 14:28 | 28.12137 | 103.01121 | 23949 ft | 468 kts | 62° |
| 2026-04-15 14:29 | 28.13611 | 103.04424 | 24350 ft | 471 kts | 62° |
| 2026-04-15 14:29 | 28.15093 | 103.07749 | 24738 ft | 474 kts | 62° |
| 2026-04-15 14:29 | 28.16583 | 103.11094 | 25140 ft | 477 kts | 62° |
| 2026-04-15 14:29 | 28.18081 | 103.14461 | 25523 ft | 481 kts | 62° |
| 2026-04-15 14:30 | 28.19598 | 103.17869 | 25852 ft | 486 kts | 62° |
| 2026-04-15 14:30 | 28.21125 | 103.21307 | 26252 ft | 490 kts | 62° |
| 2026-04-15 14:30 | 28.22640 | 103.24720 | 26617 ft | 493 kts | 62° |
| 2026-04-15 14:30 | 28.24182 | 103.28198 | 26951 ft | 496 kts | 62° |
| 2026-04-15 14:31 | 28.25734 | 103.31700 | 27311 ft | 498 kts | 62° |
| 2026-04-15 14:31 | 28.27290 | 103.35226 | 27713 ft | 501 kts | 62° |
| 2026-04-15 14:31 | 28.28846 | 103.38770 | 28100 ft | 502 kts | 62° |
| 2026-04-15 14:31 | 28.30404 | 103.42317 | 28712 ft | 499 kts | 63° |
| 2026-04-15 14:32 | 28.31951 | 103.45839 | 29203 ft | 500 kts | 63° |
| 2026-04-15 14:32 | 28.33508 | 103.49376 | 29573 ft | 503 kts | 63° |
| 2026-04-15 14:32 | 28.35080 | 103.52946 | 29765 ft | 509 kts | 63° |
| 2026-04-15 14:32 | 28.36645 | 103.56499 | 30115 ft | 511 kts | 63° |
| 2026-04-15 14:33 | 28.38234 | 103.60109 | 30471 ft | 512 kts | 63° |
| 2026-04-15 14:33 | 28.39829 | 103.63736 | 30794 ft | 514 kts | 62° |
| 2026-04-15 14:33 | 28.41429 | 103.67380 | 31101 ft | 516 kts | 62° |
| 2026-04-15 14:33 | 28.43034 | 103.71036 | 31371 ft | 518 kts | 63° |
| 2026-04-15 14:34 | 28.44643 | 103.74705 | 31722 ft | 519 kts | 62° |
| 2026-04-15 14:34 | 28.46253 | 103.78381 | 31996 ft | 521 kts | 62° |
| 2026-04-15 14:34 | 28.47868 | 103.82073 | 32324 ft | 522 kts | 62° |
| 2026-04-15 14:34 | 28.49487 | 103.85776 | 32632 ft | 524 kts | 62° |
| 2026-04-15 14:35 | 28.51087 | 103.89440 | 32897 ft | 526 kts | 62° |
| 2026-04-15 14:35 | 28.52712 | 103.93164 | 33231 ft | 526 kts | 62° |
| 2026-04-15 14:35 | 28.54328 | 103.96868 | 33718 ft | 521 kts | 62° |
| 2026-04-15 14:35 | 28.55932 | 104.00554 | 34090 ft | 520 kts | 62° |
| 2026-04-15 14:36 | 28.57532 | 104.04237 | 34430 ft | 518 kts | 62° |
| 2026-04-15 14:36 | 28.59116 | 104.07906 | 34757 ft | 514 kts | 63° |
| 2026-04-15 14:36 | 28.60661 | 104.11498 | 35020 ft | 495 kts | 63° |
| 2026-04-15 14:36 | 28.62152 | 104.14955 | 35081 ft | 479 kts | 62° |
| 2026-04-15 14:37 | 28.63712 | 104.18269 | 35100 ft | 472 kts | 56° |
| 2026-04-15 14:37 | 28.67821 | 104.23905 | 34999 ft | 462 kts | 34° |
| 2026-04-15 14:37 | 28.70423 | 104.25991 | 34987 ft | 455 kts | 23° |
| 2026-04-15 14:38 | 28.73264 | 104.27524 | 34978 ft | 448 kts | 13° |
| 2026-04-15 14:38 | 28.79232 | 104.28950 | 35001 ft | 433 kts | 355° |
| 2026-04-15 14:39 | 28.85218 | 104.28751 | 34978 ft | 430 kts | 348° |
| 2026-04-15 14:39 | 28.91175 | 104.28257 | 34976 ft | 434 kts | 348° |
| 2026-04-15 14:40 | 28.97208 | 104.27846 | 34970 ft | 433 kts | 349° |
| 2026-04-15 14:40 | 29.03221 | 104.27500 | 34974 ft | 433 kts | 349° |
| 2026-04-15 14:41 | 29.09241 | 104.27167 | 34975 ft | 432 kts | 349° |
| 2026-04-15 14:41 | 29.15199 | 104.26839 | 34969 ft | 432 kts | 349° |
| 2026-04-15 14:42 | 29.21200 | 104.26505 | 34971 ft | 432 kts | 349° |
| 2026-04-15 14:42 | 29.27213 | 104.26251 | 34970 ft | 436 kts | 355° |
| 2026-04-15 14:43 | 29.33297 | 104.26984 | 34970 ft | 443 kts | 2° |
| 2026-04-15 14:43 | 29.39410 | 104.28110 | 34967 ft | 446 kts | 2° |
| 2026-04-15 14:44 | 29.45517 | 104.29216 | 34969 ft | 448 kts | 1° |
| 2026-04-15 14:44 | 29.51671 | 104.30285 | 34972 ft | 447 kts | 1° |
| 2026-04-15 14:45 | 29.57827 | 104.31338 | 34981 ft | 447 kts | 1° |
| 2026-04-15 14:45 | 29.63986 | 104.32389 | 34981 ft | 448 kts | 2° |
| 2026-04-15 14:46 | 29.70108 | 104.33437 | 34982 ft | 448 kts | 2° |
| 2026-04-15 14:46 | 29.76267 | 104.34494 | 34978 ft | 448 kts | 2° |
| 2026-04-15 14:47 | 29.82427 | 104.35552 | 34982 ft | 448 kts | 2° |
| 2026-04-15 14:47 | 29.88597 | 104.36613 | 34981 ft | 448 kts | 2° |
| 2026-04-15 14:48 | 29.94757 | 104.37674 | 34988 ft | 447 kts | 2° |
| 2026-04-15 14:48 | 30.00872 | 104.38728 | 34985 ft | 447 kts | 2° |
| 2026-04-15 14:49 | 30.07028 | 104.39790 | 34984 ft | 447 kts | 2° |
| 2026-04-15 14:49 | 30.13183 | 104.40856 | 34984 ft | 447 kts | 2° |
| 2026-04-15 14:50 | 30.19344 | 104.41934 | 34992 ft | 449 kts | 2° |
| 2026-04-15 14:50 | 30.25494 | 104.43010 | 35012 ft | 451 kts | 2° |
| 2026-04-15 14:51 | 30.31697 | 104.44100 | 35011 ft | 451 kts | 2° |
| 2026-04-15 14:51 | 30.37897 | 104.45188 | 35012 ft | 451 kts | 2° |
| 2026-04-15 14:52 | 30.44061 | 104.46272 | 35007 ft | 451 kts | 2° |
| 2026-04-15 14:52 | 30.50252 | 104.47497 | 35003 ft | 455 kts | 8° |
| 2026-04-15 14:53 | 30.56176 | 104.50244 | 35001 ft | 466 kts | 28° |
| 2026-04-15 14:53 | 30.58795 | 104.52486 | 34995 ft | 471 kts | 40° |
| 2026-04-15 14:53 | 30.61057 | 104.55240 | 34994 ft | 473 kts | 51° |
| 2026-04-15 14:53 | 30.62898 | 104.58409 | 34993 ft | 474 kts | 62° |
| 2026-04-15 14:54 | 30.64253 | 104.61831 | 34994 ft | 473 kts | 71° |
| 2026-04-15 14:54 | 30.66162 | 104.69130 | 34989 ft | 472 kts | 77° |
| 2026-04-15 14:55 | 30.67873 | 104.76500 | 35001 ft | 473 kts | 77° |
| 2026-04-15 14:55 | 30.69681 | 104.83869 | 34995 ft | 475 kts | 76° |
| 2026-04-15 14:56 | 30.71536 | 104.91181 | 34995 ft | 475 kts | 75° |
| 2026-04-15 14:56 | 30.73411 | 104.98543 | 34992 ft | 476 kts | 75° |
| 2026-04-15 14:57 | 30.75283 | 105.05922 | 34994 ft | 476 kts | 75° |
| 2026-04-15 14:57 | 30.77149 | 105.13306 | 34993 ft | 476 kts | 75° |
| 2026-04-15 14:58 | 30.79011 | 105.20696 | 34992 ft | 476 kts | 75° |
| 2026-04-15 14:58 | 30.80856 | 105.28039 | 34985 ft | 476 kts | 75° |
| 2026-04-15 14:59 | 30.82709 | 105.35435 | 34990 ft | 476 kts | 75° |
| 2026-04-15 14:59 | 30.84521 | 105.42836 | 34988 ft | 475 kts | 76° |
| 2026-04-15 15:00 | 30.85865 | 105.49032 | 35003 ft | 475 kts | 77° |
| 2026-04-15 15:00 | 30.87682 | 105.57736 | 34994 ft | 477 kts | 77° |
| 2026-04-15 15:01 | 30.89257 | 105.65234 | 34994 ft | 477 kts | 77° |
| 2026-04-15 15:01 | 30.90573 | 105.71471 | 34992 ft | 478 kts | 77° |
| 2026-04-15 15:02 | 30.92428 | 105.80268 | 34989 ft | 478 kts | 77° |
| 2026-04-15 15:02 | 30.94008 | 105.87785 | 34990 ft | 478 kts | 76° |
| 2026-04-15 15:03 | 30.95572 | 105.95256 | 34993 ft | 478 kts | 77° |
| 2026-04-15 15:03 | 30.96806 | 106.01583 | 34987 ft | 477 kts | 82° |
| 2026-04-15 15:04 | 30.97480 | 106.09205 | 34993 ft | 476 kts | 88° |
| 2026-04-15 15:04 | 30.97846 | 106.16900 | 34994 ft | 475 kts | 89° |
| 2026-04-15 15:05 | 30.98235 | 106.24589 | 34992 ft | 475 kts | 88° |
| 2026-04-15 15:05 | 30.98667 | 106.32277 | 34991 ft | 475 kts | 88° |
| 2026-04-15 15:06 | 30.99326 | 106.43753 | 34994 ft | 475 kts | 88° |
| 2026-04-15 15:06 | 30.99761 | 106.51436 | 34998 ft | 475 kts | 88° |
| 2026-04-15 15:07 | 31.00191 | 106.59144 | 35007 ft | 479 kts | 88° |
| 2026-04-15 15:07 | 31.00689 | 106.68180 | 35004 ft | 480 kts | 89° |
| 2026-04-15 15:08 | 31.01041 | 106.74627 | 35003 ft | 479 kts | 89° |
| 2026-04-15 15:08 | 31.01460 | 106.82384 | 35008 ft | 480 kts | 89° |
| 2026-04-15 15:09 | 31.01941 | 106.91402 | 35012 ft | 479 kts | 89° |
| 2026-04-15 15:09 | 31.02282 | 106.97902 | 35010 ft | 479 kts | 89° |
| 2026-04-15 15:10 | 31.02661 | 107.05612 | 35002 ft | 479 kts | 89° |
| 2026-04-15 15:10 | 31.03047 | 107.13371 | 35016 ft | 479 kts | 89° |
| 2026-04-15 15:11 | 31.03439 | 107.21128 | 35019 ft | 480 kts | 89° |
| 2026-04-15 15:11 | 31.03831 | 107.28887 | 35021 ft | 479 kts | 89° |
| 2026-04-15 15:12 | 31.04215 | 107.36594 | 35024 ft | 479 kts | 89° |
| 2026-04-15 15:12 | 31.04574 | 107.44350 | 35021 ft | 478 kts | 90° |
| 2026-04-15 15:13 | 31.04822 | 107.52101 | 35030 ft | 478 kts | 91° |
| 2026-04-15 15:13 | 31.04985 | 107.59847 | 35032 ft | 478 kts | 91° |
| 2026-04-15 15:14 | 31.05132 | 107.67592 | 35035 ft | 478 kts | 91° |
| 2026-04-15 15:14 | 31.05275 | 107.75289 | 35018 ft | 478 kts | 91° |
| 2026-04-15 15:15 | 31.05421 | 107.83024 | 35037 ft | 477 kts | 91° |
| 2026-04-15 15:15 | 31.05564 | 107.90758 | 35043 ft | 477 kts | 91° |
| 2026-04-15 15:16 | 31.05703 | 107.98491 | 35045 ft | 477 kts | 91° |
| 2026-04-15 15:16 | 31.05836 | 108.06172 | 35045 ft | 478 kts | 91° |
| 2026-04-15 15:17 | 31.05965 | 108.13933 | 35048 ft | 480 kts | 91° |
| 2026-04-15 15:17 | 31.06091 | 108.21743 | 35050 ft | 481 kts | 91° |
| 2026-04-15 15:18 | 31.06213 | 108.29533 | 35044 ft | 480 kts | 91° |
| 2026-04-15 15:18 | 31.06328 | 108.37264 | 35048 ft | 480 kts | 91° |
| 2026-04-15 15:19 | 31.06440 | 108.45052 | 35040 ft | 480 kts | 91° |
| 2026-04-15 15:19 | 31.06547 | 108.52818 | 35046 ft | 479 kts | 92° |
| 2026-04-15 15:20 | 31.06648 | 108.60589 | 35047 ft | 479 kts | 92° |
| 2026-04-15 15:20 | 31.06730 | 108.68361 | 35047 ft | 479 kts | 92° |
| 2026-04-15 15:21 | 31.06801 | 108.76073 | 35052 ft | 479 kts | 92° |
| 2026-04-15 15:21 | 31.06882 | 108.83837 | 35046 ft | 479 kts | 92° |
| 2026-04-15 15:22 | 31.06965 | 108.91607 | 35051 ft | 479 kts | 92° |
| 2026-04-15 15:22 | 31.07044 | 108.99373 | 35064 ft | 479 kts | 92° |
| 2026-04-15 15:23 | 31.07118 | 109.07094 | 35064 ft | 479 kts | 92° |
| 2026-04-15 15:23 | 31.07187 | 109.14862 | 35063 ft | 479 kts | 92° |
| 2026-04-15 15:24 | 31.07252 | 109.22640 | 35063 ft | 480 kts | 92° |
| 2026-04-15 15:24 | 31.07312 | 109.30424 | 35064 ft | 480 kts | 92° |
| 2026-04-15 15:25 | 31.07367 | 109.38198 | 35069 ft | 479 kts | 92° |
| 2026-04-15 15:25 | 31.07417 | 109.45917 | 35065 ft | 480 kts | 92° |
| 2026-04-15 15:26 | 31.07463 | 109.53701 | 35074 ft | 480 kts | 92° |
| 2026-04-15 15:26 | 31.07502 | 109.61457 | 35079 ft | 478 kts | 93° |
| 2026-04-15 15:27 | 31.07454 | 109.69213 | 35083 ft | 477 kts | 98° |
| 2026-04-15 15:27 | 31.06066 | 109.76623 | 35071 ft | 470 kts | 113° |
| 2026-04-15 15:28 | 31.03929 | 109.83792 | 35076 ft | 466 kts | 115° |
| 2026-04-15 15:28 | 31.01800 | 109.90925 | 35081 ft | 466 kts | 114° |
| 2026-04-15 15:29 | 30.99747 | 109.98093 | 35081 ft | 467 kts | 114° |
| 2026-04-15 15:29 | 30.97718 | 110.05289 | 35089 ft | 467 kts | 114° |
| 2026-04-15 15:30 | 30.95708 | 110.12420 | 35087 ft | 466 kts | 114° |
| 2026-04-15 15:30 | 30.93682 | 110.19577 | 35091 ft | 467 kts | 114° |
| 2026-04-15 15:31 | 30.91637 | 110.26776 | 35090 ft | 468 kts | 114° |
| 2026-04-15 15:31 | 30.89591 | 110.33967 | 35100 ft | 467 kts | 114° |
| 2026-04-15 15:32 | 30.87558 | 110.41093 | 35091 ft | 467 kts | 114° |
| 2026-04-15 15:32 | 30.85507 | 110.48269 | 35081 ft | 467 kts | 114° |
| 2026-04-15 15:33 | 30.83449 | 110.55449 | 35102 ft | 469 kts | 115° |
| 2026-04-15 15:33 | 30.81384 | 110.62638 | 35094 ft | 468 kts | 115° |
| 2026-04-15 15:34 | 30.79312 | 110.69751 | 35102 ft | 468 kts | 115° |
| 2026-04-15 15:34 | 30.77226 | 110.76925 | 35097 ft | 468 kts | 115° |
| 2026-04-15 15:35 | 30.75146 | 110.84103 | 35101 ft | 469 kts | 115° |
| 2026-04-15 15:35 | 30.73051 | 110.91322 | 35106 ft | 472 kts | 115° |
| 2026-04-15 15:36 | 30.70971 | 110.98493 | 35098 ft | 472 kts | 115° |
| 2026-04-15 15:36 | 30.68869 | 111.05708 | 35097 ft | 471 kts | 115° |
| 2026-04-15 15:37 | 30.66761 | 111.12919 | 35095 ft | 471 kts | 115° |
| 2026-04-15 15:37 | 30.64649 | 111.20136 | 35091 ft | 473 kts | 115° |
| 2026-04-15 15:38 | 30.62818 | 111.27451 | 35078 ft | 482 kts | 101° |
| 2026-04-15 15:38 | 30.62722 | 111.31365 | 35089 ft | 488 kts | 88° |
| 2026-04-15 15:38 | 30.63131 | 111.35285 | 35087 ft | 491 kts | 82° |
| 2026-04-15 15:39 | 30.64409 | 111.43100 | 35082 ft | 493 kts | 81° |
| 2026-04-15 15:39 | 30.65447 | 111.50958 | 35081 ft | 491 kts | 87° |
| 2026-04-15 15:40 | 30.65914 | 111.58805 | 35084 ft | 490 kts | 90° |
| 2026-04-15 15:40 | 30.66260 | 111.66709 | 35083 ft | 490 kts | 90° |
| 2026-04-15 15:41 | 30.66631 | 111.74611 | 35086 ft | 490 kts | 90° |
| 2026-04-15 15:41 | 30.67029 | 111.82517 | 35068 ft | 491 kts | 90° |
| 2026-04-15 15:42 | 30.67428 | 111.90409 | 35078 ft | 495 kts | 90° |
| 2026-04-15 15:42 | 30.67860 | 111.98427 | 35077 ft | 498 kts | 89° |
| 2026-04-15 15:43 | 30.68397 | 112.06417 | 35084 ft | 492 kts | 88° |
| 2026-04-15 15:43 | 30.68951 | 112.14283 | 35057 ft | 488 kts | 88° |
| 2026-04-15 15:44 | 30.69490 | 112.22114 | 35072 ft | 492 kts | 88° |
| 2026-04-15 15:44 | 30.70026 | 112.30068 | 35071 ft | 495 kts | 88° |
| 2026-04-15 15:45 | 30.70559 | 112.38019 | 35068 ft | 493 kts | 88° |
| 2026-04-15 15:45 | 30.71085 | 112.45960 | 35055 ft | 493 kts | 88° |
| 2026-04-15 15:46 | 30.71603 | 112.53868 | 35065 ft | 496 kts | 88° |
| 2026-04-15 15:46 | 30.72124 | 112.61876 | 35063 ft | 497 kts | 88° |
| 2026-04-15 15:47 | 30.72640 | 112.69878 | 35066 ft | 496 kts | 88° |
| 2026-04-15 15:47 | 30.73150 | 112.77877 | 35058 ft | 497 kts | 88° |
| 2026-04-15 15:48 | 30.73652 | 112.85843 | 35059 ft | 499 kts | 88° |
| 2026-04-15 15:48 | 30.74150 | 112.93922 | 35058 ft | 501 kts | 89° |
| 2026-04-15 15:49 | 30.74627 | 113.01995 | 35058 ft | 500 kts | 89° |
| 2026-04-15 15:49 | 30.75110 | 113.10065 | 35076 ft | 500 kts | 88° |
| 2026-04-15 15:50 | 30.75491 | 113.18015 | 35051 ft | 496 kts | 91° |
| 2026-04-15 15:50 | 30.75702 | 113.26038 | 35052 ft | 496 kts | 91° |
| 2026-04-15 15:51 | 30.75889 | 113.34061 | 35052 ft | 496 kts | 91° |
| 2026-04-15 15:51 | 30.76085 | 113.42084 | 35047 ft | 496 kts | 91° |
| 2026-04-15 15:52 | 30.76283 | 113.50055 | 35047 ft | 498 kts | 91° |
| 2026-04-15 15:52 | 30.76479 | 113.58105 | 35046 ft | 498 kts | 91° |
| 2026-04-15 15:53 | 30.76670 | 113.66147 | 35044 ft | 498 kts | 91° |
| 2026-04-15 15:53 | 30.76856 | 113.74190 | 35044 ft | 498 kts | 91° |
| 2026-04-15 15:54 | 30.77035 | 113.82196 | 35045 ft | 500 kts | 91° |
| 2026-04-15 15:54 | 30.77211 | 113.90311 | 35049 ft | 502 kts | 91° |
| 2026-04-15 15:55 | 30.77384 | 113.98418 | 35058 ft | 501 kts | 91° |
| 2026-04-15 15:55 | 30.77619 | 114.06524 | 35062 ft | 502 kts | 90° |
| 2026-04-15 15:56 | 30.77943 | 114.14646 | 35065 ft | 504 kts | 90° |
| 2026-04-15 15:56 | 30.78808 | 114.22670 | 35098 ft | 505 kts | 74° |
| 2026-04-15 15:57 | 30.81184 | 114.30307 | 35066 ft | 501 kts | 66° |
| 2026-04-15 15:57 | 30.83827 | 114.37806 | 35039 ft | 501 kts | 67° |
| 2026-04-15 15:58 | 30.86361 | 114.45368 | 35036 ft | 504 kts | 68° |
| 2026-04-15 15:58 | 30.88845 | 114.53004 | 35043 ft | 504 kts | 68° |
| 2026-04-15 15:59 | 30.91297 | 114.60579 | 35043 ft | 504 kts | 68° |
| 2026-04-15 15:59 | 30.93769 | 114.68216 | 35041 ft | 504 kts | 68° |
| 2026-04-15 16:00 | 30.96236 | 114.75841 | 35047 ft | 499 kts | 68° |
| 2026-04-15 16:00 | 30.98675 | 114.83401 | 35047 ft | 498 kts | 68° |
| 2026-04-15 16:01 | 31.01095 | 114.90916 | 35044 ft | 498 kts | 68° |
| 2026-04-15 16:01 | 31.03517 | 114.98489 | 35044 ft | 498 kts | 69° |
| 2026-04-15 16:02 | 31.05934 | 115.06066 | 35047 ft | 500 kts | 68° |
| 2026-04-15 16:02 | 31.08367 | 115.13685 | 35046 ft | 501 kts | 68° |
| 2026-04-15 16:03 | 31.10779 | 115.21255 | 35087 ft | 501 kts | 69° |
| 2026-04-15 16:03 | 31.13173 | 115.28819 | 35056 ft | 495 kts | 68° |
| 2026-04-15 16:04 | 31.15589 | 115.36317 | 35050 ft | 494 kts | 68° |
| 2026-04-15 16:04 | 31.18036 | 115.43854 | 35060 ft | 498 kts | 68° |
| 2026-04-15 16:05 | 31.20469 | 115.51368 | 35059 ft | 497 kts | 68° |
| 2026-04-15 16:05 | 31.22908 | 115.58927 | 35065 ft | 497 kts | 68° |
| 2026-04-15 16:06 | 31.25343 | 115.66494 | 35064 ft | 498 kts | 68° |
| 2026-04-15 16:06 | 31.27786 | 115.74100 | 34992 ft | 500 kts | 68° |
| 2026-04-15 16:07 | 31.30195 | 115.81649 | 34969 ft | 499 kts | 68° |
| 2026-04-15 16:08 | 31.33854 | 115.93067 | 34975 ft | 500 kts | 68° |
| 2026-04-15 16:08 | 31.36336 | 116.00671 | 34970 ft | 502 kts | 68° |
| 2026-04-15 16:09 | 31.38836 | 116.08326 | 34959 ft | 504 kts | 68° |
| 2026-04-15 16:09 | 31.41309 | 116.15929 | 34982 ft | 502 kts | 68° |
| 2026-04-15 16:10 | 31.43770 | 116.23520 | 34972 ft | 498 kts | 68° |
| 2026-04-15 16:10 | 31.46224 | 116.31104 | 34967 ft | 500 kts | 68° |
| 2026-04-15 16:11 | 31.48691 | 116.38745 | 34969 ft | 502 kts | 68° |
| 2026-04-15 16:11 | 31.51136 | 116.46340 | 34968 ft | 501 kts | 68° |
| 2026-04-15 16:12 | 31.53592 | 116.53985 | 34969 ft | 501 kts | 68° |
| 2026-04-15 16:12 | 31.56046 | 116.61640 | 34985 ft | 503 kts | 68° |
| 2026-04-15 16:13 | 31.58486 | 116.69272 | 34972 ft | 498 kts | 68° |
| 2026-04-15 16:13 | 31.60912 | 116.76880 | 34974 ft | 498 kts | 68° |
| 2026-04-15 16:14 | 31.63302 | 116.84456 | 34974 ft | 498 kts | 69° |
| 2026-04-15 16:14 | 31.65706 | 116.92088 | 34974 ft | 500 kts | 68° |
| 2026-04-15 16:15 | 31.68138 | 116.99785 | 34978 ft | 504 kts | 68° |
| 2026-04-15 16:15 | 31.70534 | 117.07505 | 34996 ft | 501 kts | 69° |
| 2026-04-15 16:16 | 31.72864 | 117.15092 | 34983 ft | 496 kts | 69° |
| 2026-04-15 16:16 | 31.75207 | 117.22730 | 34974 ft | 499 kts | 69° |
| 2026-04-15 16:17 | 31.77293 | 117.30507 | 34974 ft | 499 kts | 82° |
| 2026-04-15 16:17 | 31.77539 | 117.34555 | 34979 ft | 496 kts | 94° |
| 2026-04-15 16:17 | 31.77344 | 117.38591 | 34979 ft | 494 kts | 99° |
| 2026-04-15 16:18 | 31.76572 | 117.46560 | 34977 ft | 494 kts | 100° |
| 2026-04-15 16:18 | 31.75855 | 117.54616 | 34975 ft | 498 kts | 99° |
| 2026-04-15 16:19 | 31.75258 | 117.62731 | 34978 ft | 499 kts | 98° |
| 2026-04-15 16:19 | 31.74699 | 117.70855 | 34979 ft | 499 kts | 98° |
| 2026-04-15 16:20 | 31.74134 | 117.78972 | 34982 ft | 499 kts | 98° |
| 2026-04-15 16:20 | 31.73563 | 117.87032 | 34980 ft | 499 kts | 98° |
| 2026-04-15 16:21 | 31.72980 | 117.95149 | 34978 ft | 498 kts | 98° |
| 2026-04-15 16:21 | 31.72398 | 118.03207 | 34981 ft | 491 kts | 98° |
| 2026-04-15 16:22 | 31.71814 | 118.11198 | 34976 ft | 492 kts | 98° |
| 2026-04-15 16:22 | 31.71238 | 118.19168 | 34979 ft | 493 kts | 98° |
| 2026-04-15 16:23 | 31.70675 | 118.27194 | 34980 ft | 493 kts | 98° |
| 2026-04-15 16:23 | 31.70115 | 118.35220 | 34979 ft | 493 kts | 98° |
| 2026-04-15 16:24 | 31.69548 | 118.43260 | 34980 ft | 496 kts | 98° |
| 2026-04-15 16:24 | 31.68974 | 118.51313 | 34985 ft | 499 kts | 98° |
| 2026-04-15 16:25 | 31.68393 | 118.59415 | 34986 ft | 498 kts | 98° |
| 2026-04-15 16:25 | 31.67806 | 118.67515 | 34981 ft | 498 kts | 98° |
| 2026-04-15 16:26 | 31.67210 | 118.75653 | 34992 ft | 502 kts | 98° |
| 2026-04-15 16:26 | 31.66607 | 118.83817 | 34992 ft | 502 kts | 98° |
| 2026-04-15 16:27 | 31.66005 | 118.91922 | 34993 ft | 502 kts | 98° |
| 2026-04-15 16:27 | 31.65387 | 119.00079 | 34992 ft | 503 kts | 98° |
| 2026-04-15 16:28 | 31.64826 | 119.08280 | 34988 ft | 505 kts | 97° |
| 2026-04-15 16:28 | 31.64411 | 119.16502 | 34988 ft | 505 kts | 96° |
| 2026-04-15 16:29 | 31.64058 | 119.24678 | 34989 ft | 505 kts | 96° |
| 2026-04-15 16:29 | 31.63698 | 119.32929 | 35020 ft | 508 kts | 96° |
| 2026-04-15 16:30 | 31.63322 | 119.41175 | 35000 ft | 503 kts | 96° |
| 2026-04-15 16:30 | 31.62932 | 119.49369 | 35001 ft | 503 kts | 96° |
| 2026-04-15 16:31 | 31.62539 | 119.57565 | 34996 ft | 504 kts | 96° |
| 2026-04-15 16:31 | 31.62143 | 119.65756 | 35002 ft | 507 kts | 96° |
| 2026-04-15 16:32 | 31.61756 | 119.74011 | 35006 ft | 507 kts | 96° |
| 2026-04-15 16:32 | 31.61379 | 119.82267 | 35007 ft | 507 kts | 96° |
| 2026-04-15 16:33 | 31.61001 | 119.90528 | 35010 ft | 508 kts | 96° |
| 2026-04-15 16:33 | 31.60618 | 119.98753 | 35009 ft | 508 kts | 96° |
| 2026-04-15 16:34 | 31.60227 | 120.07032 | 35012 ft | 508 kts | 96° |
| 2026-04-15 16:34 | 31.59830 | 120.15309 | 35011 ft | 509 kts | 96° |
| 2026-04-15 16:35 | 31.59427 | 120.23611 | 35012 ft | 510 kts | 96° |
| 2026-04-15 16:35 | 31.58826 | 120.31883 | 35022 ft | 505 kts | 106° |
| 2026-04-15 16:36 | 31.56884 | 120.39661 | 35023 ft | 498 kts | 116° |
| 2026-04-15 16:36 | 31.54455 | 120.47272 | 35018 ft | 499 kts | 117° |
| 2026-04-15 16:37 | 31.52069 | 120.54926 | 35020 ft | 500 kts | 116° |
| 2026-04-15 16:37 | 31.49758 | 120.62620 | 35028 ft | 501 kts | 115° |
| 2026-04-15 16:38 | 31.47483 | 120.70269 | 35026 ft | 500 kts | 115° |
| 2026-04-15 16:38 | 31.45187 | 120.77962 | 35025 ft | 500 kts | 115° |
| 2026-04-15 16:39 | 31.42883 | 120.85652 | 35022 ft | 500 kts | 115° |
| 2026-04-15 16:39 | 31.40572 | 120.93339 | 35029 ft | 501 kts | 115° |
| 2026-04-15 16:40 | 31.38257 | 121.01021 | 35028 ft | 500 kts | 115° |
| 2026-04-15 16:40 | 31.35958 | 121.08634 | 35034 ft | 499 kts | 115° |
| 2026-04-15 16:41 | 31.33606 | 121.16274 | 35041 ft | 499 kts | 116° |
| 2026-04-15 16:41 | 31.31236 | 121.23899 | 35043 ft | 499 kts | 116° |
| 2026-04-15 16:42 | 31.28871 | 121.31528 | 35017 ft | 499 kts | 116° |
| 2026-04-15 16:42 | 31.26728 | 121.39273 | 35019 ft | 502 kts | 111° |
| 2026-04-15 16:43 | 31.24849 | 121.47088 | 35025 ft | 503 kts | 110° |
| 2026-04-15 16:43 | 31.22977 | 121.54962 | 35018 ft | 503 kts | 111° |
| 2026-04-15 16:44 | 31.21075 | 121.62823 | 35042 ft | 503 kts | 111° |
| 2026-04-15 16:44 | 31.19158 | 121.70669 | 35047 ft | 503 kts | 111° |
| 2026-04-15 16:45 | 31.17572 | 121.78571 | 35041 ft | 508 kts | 96° |
| 2026-04-15 16:45 | 31.17666 | 121.82704 | 35046 ft | 510 kts | 82° |
| 2026-04-15 16:45 | 31.18325 | 121.86770 | 35050 ft | 511 kts | 75° |
| 2026-04-15 16:46 | 31.20167 | 121.94796 | 35047 ft | 512 kts | 73° |
| 2026-04-15 16:46 | 31.21933 | 122.02860 | 35043 ft | 513 kts | 75° |
| 2026-04-15 16:47 | 31.23525 | 122.10984 | 35041 ft | 513 kts | 76° |
| 2026-04-15 16:47 | 31.25048 | 122.19078 | 35042 ft | 513 kts | 76° |
| 2026-04-15 16:48 | 31.26577 | 122.27229 | 35045 ft | 513 kts | 76° |
| 2026-04-15 16:48 | 31.28109 | 122.35377 | 35033 ft | 513 kts | 76° |
| 2026-04-15 16:49 | 31.29638 | 122.43527 | 35064 ft | 514 kts | 76° |